createdAt,value
2022-09-15T00:00:09.642Z,18.20
2022-09-15T00:02:36.439Z,18.20
2022-09-15T00:05:03.396Z,18.20
2022-09-15T00:07:31.353Z,18.20
2022-09-15T00:09:57.994Z,18.20
2022-09-15T00:12:25.008Z,18.20
2022-09-15T00:14:51.633Z,18.20
2022-09-15T00:17:18.364Z,18.10
2022-09-15T00:19:45.106Z,18.10
2022-09-15T00:22:12.004Z,18.10
2022-09-15T00:24:38.737Z,18.10
2022-09-15T00:27:05.421Z,18.10
2022-09-15T00:29:32.129Z,18.10
2022-09-15T00:31:58.888Z,18.10
2022-09-15T00:34:25.667Z,18.10
2022-09-15T00:36:52.338Z,18.10
2022-09-15T00:39:18.992Z,18.10
2022-09-15T00:41:45.648Z,18.10
2022-09-15T00:44:36.312Z,18.00
2022-09-15T00:47:21.851Z,18.00
2022-09-15T00:49:58.410Z,18.00
2022-09-15T00:52:48.805Z,18.00
2022-09-15T00:55:28.259Z,17.90
2022-09-15T00:58:00.115Z,18.00
2022-09-15T01:00:28.477Z,17.90
2022-09-15T01:02:56.716Z,17.90
2022-09-15T01:05:43.975Z,17.90
2022-09-15T01:08:22.188Z,17.90
2022-09-15T01:10:49.220Z,17.90
2022-09-15T01:13:15.921Z,17.80
2022-09-15T01:16:13.296Z,17.90
2022-09-15T01:19:02.748Z,18.00
2022-09-15T01:21:40.093Z,17.90
2022-09-15T01:24:45.717Z,17.90
2022-09-15T01:27:49.835Z,17.90
2022-09-15T01:30:20.466Z,17.90
2022-09-15T01:33:26.932Z,17.90
2022-09-15T01:36:19.897Z,17.90
2022-09-15T01:38:50.791Z,17.80
2022-09-15T01:41:26.705Z,17.90
2022-09-15T01:43:56.014Z,17.90
2022-09-15T01:46:26.039Z,17.90
2022-09-15T01:48:54.865Z,17.90
2022-09-15T01:51:24.467Z,17.80
2022-09-15T01:53:52.871Z,17.90
2022-09-15T01:56:19.662Z,17.90
2022-09-15T01:58:49.575Z,17.90
2022-09-15T02:01:33.070Z,17.90
2022-09-15T02:04:10.510Z,17.90
2022-09-15T02:06:45.441Z,17.90
2022-09-15T02:09:22.362Z,17.90
2022-09-15T02:12:01.118Z,17.90
2022-09-15T02:14:39.904Z,17.90
2022-09-15T02:17:10.782Z,17.90
2022-09-15T02:19:41.626Z,17.80
2022-09-15T02:22:11.060Z,17.80
2022-09-15T02:25:04.603Z,17.80
2022-09-15T02:27:37.744Z,17.80
2022-09-15T02:30:09.826Z,17.80
2022-09-15T02:32:40.809Z,17.80
2022-09-15T02:35:09.900Z,17.80
2022-09-15T02:37:38.254Z,17.90
2022-09-15T02:40:06.779Z,17.90
2022-09-15T02:42:34.303Z,17.90
2022-09-15T02:45:01.769Z,17.90
2022-09-15T02:47:28.543Z,17.80
2022-09-15T02:49:55.811Z,17.90
2022-09-15T02:52:22.603Z,17.90
2022-09-15T02:54:50.349Z,17.90
2022-09-15T02:57:17.345Z,17.90
2022-09-15T03:00:02.558Z,17.90
2022-09-15T03:02:29.757Z,17.90
2022-09-15T03:04:56.512Z,17.90
2022-09-15T03:07:23.473Z,17.90
2022-09-15T03:09:50.369Z,17.90
2022-09-15T03:12:17.743Z,17.90
2022-09-15T03:14:44.359Z,17.90
2022-09-15T03:17:11.049Z,17.80
2022-09-15T03:19:37.719Z,17.90
2022-09-15T03:22:04.887Z,17.90
2022-09-15T03:24:31.529Z,17.90
2022-09-15T03:26:58.177Z,17.80
2022-09-15T03:29:24.848Z,17.80
2022-09-15T03:31:51.622Z,17.80
2022-09-15T03:34:18.350Z,17.80
2022-09-15T03:36:44.990Z,17.80
2022-09-15T03:39:12.533Z,17.80
2022-09-15T03:41:39.183Z,17.80
2022-09-15T03:44:05.914Z,17.80
2022-09-15T03:46:33.025Z,17.80
2022-09-15T03:48:59.657Z,17.70
2022-09-15T03:51:26.276Z,17.80
2022-09-15T03:53:53.021Z,17.80
2022-09-15T03:56:31.252Z,17.80
2022-09-15T03:58:59.048Z,17.80
2022-09-15T04:01:26.065Z,17.80
2022-09-15T04:03:52.769Z,17.80
2022-09-15T04:06:21.140Z,17.80
2022-09-15T04:08:48.799Z,17.80
2022-09-15T04:11:17.036Z,17.80
2022-09-15T04:13:44.158Z,17.80
2022-09-15T04:16:13.588Z,17.80
2022-09-15T04:18:40.645Z,17.80
2022-09-15T04:21:11.479Z,17.80
2022-09-15T04:23:38.807Z,17.80
2022-09-15T04:26:07.923Z,17.80
2022-09-15T04:28:37.136Z,17.80
2022-09-15T04:31:12.787Z,17.90
2022-09-15T04:33:41.384Z,17.90
2022-09-15T04:36:14.640Z,17.80
2022-09-15T04:38:42.498Z,17.80
2022-09-15T04:41:10.520Z,17.80
2022-09-15T04:43:37.578Z,17.80
2022-09-15T04:46:05.359Z,17.70
2022-09-15T04:48:32.539Z,17.50
2022-09-15T04:51:03.734Z,17.40
2022-09-15T04:53:30.520Z,17.30
2022-09-15T04:56:08.760Z,17.30
2022-09-15T04:58:40.677Z,17.30
2022-09-15T05:01:13.357Z,17.30
2022-09-15T05:03:41.024Z,17.20
2022-09-15T05:06:09.665Z,17.10
2022-09-15T05:08:36.698Z,17.10
2022-09-15T05:11:05.865Z,17.10
2022-09-15T05:13:33.651Z,17.20
2022-09-15T05:16:09.264Z,17.10
2022-09-15T05:18:36.048Z,17.00
2022-09-15T05:21:03.925Z,17.10
2022-09-15T05:23:33.108Z,17.10
2022-09-15T05:26:02.316Z,17.10
2022-09-15T05:28:29.054Z,17.10
2022-09-15T05:30:55.921Z,17.10
2022-09-15T05:33:23.491Z,17.10
2022-09-15T05:35:55.157Z,17.10
2022-09-15T05:38:22.260Z,17.10
2022-09-15T05:40:49.121Z,17.10
2022-09-15T05:43:17.285Z,17.20
2022-09-15T05:45:44.569Z,17.10
2022-09-15T05:48:12.483Z,17.10
2022-09-15T05:50:39.631Z,17.30
2022-09-15T05:53:07.536Z,17.20
2022-09-15T05:55:38.031Z,17.20
2022-09-15T05:58:04.688Z,17.10
2022-09-15T06:00:31.360Z,17.20
2022-09-15T06:02:58.115Z,17.20
2022-09-15T06:05:24.841Z,17.20
2022-09-15T06:07:57.640Z,17.20
2022-09-15T06:10:25.022Z,17.20
2022-09-15T06:12:55.403Z,17.10
2022-09-15T06:15:22.818Z,17.10
2022-09-15T06:17:49.713Z,17.10
2022-09-15T06:20:16.603Z,17.10
2022-09-15T06:22:43.201Z,17.10
2022-09-15T06:25:10.532Z,17.00
2022-09-15T06:27:37.235Z,17.10
2022-09-15T06:30:04.459Z,17.00
2022-09-15T06:32:31.146Z,17.10
2022-09-15T06:34:57.808Z,17.10
2022-09-15T06:37:24.497Z,17.00
2022-09-15T06:39:51.191Z,17.00
2022-09-15T06:42:17.888Z,17.00
2022-09-15T06:44:44.525Z,17.00
2022-09-15T06:47:15.400Z,17.00
2022-09-15T06:49:42.174Z,17.10
2022-09-15T06:52:08.833Z,17.10
2022-09-15T06:54:35.437Z,17.00
2022-09-15T06:57:02.074Z,17.00
2022-09-15T06:59:28.710Z,17.00
2022-09-15T07:01:55.569Z,17.00
2022-09-15T07:04:22.537Z,16.90
2022-09-15T07:06:50.368Z,16.90
2022-09-15T07:09:17.017Z,16.80
2022-09-15T07:11:43.657Z,16.90
2022-09-15T07:14:11.132Z,16.80
2022-09-15T07:16:38.293Z,16.80
2022-09-15T07:19:05.874Z,16.80
2022-09-15T07:21:34.180Z,16.80
2022-09-15T07:24:05.126Z,16.70
2022-09-15T07:26:33.886Z,16.70
2022-09-15T07:29:03.216Z,16.80
2022-09-15T07:31:32.116Z,16.80
2022-09-15T07:33:59.374Z,16.70
2022-09-15T07:36:26.027Z,16.70
2022-09-15T07:38:52.919Z,16.80
2022-09-15T07:41:22.530Z,16.80
2022-09-15T07:43:51.117Z,16.80
2022-09-15T07:46:18.804Z,16.60
2022-09-15T07:48:46.930Z,16.60
2022-09-15T07:51:14.274Z,16.60
2022-09-15T07:53:41.137Z,16.60
2022-09-15T07:56:08.099Z,16.60
2022-09-15T07:58:34.952Z,16.60
2022-09-15T08:01:06.569Z,16.70
2022-09-15T08:03:33.453Z,16.70
2022-09-15T08:06:01.318Z,16.70
2022-09-15T08:08:29.744Z,16.60
2022-09-15T08:10:57.414Z,16.50
2022-09-15T08:13:24.988Z,16.50
2022-09-15T08:15:52.506Z,16.50
2022-09-15T08:18:19.199Z,16.50
2022-09-15T08:20:45.917Z,16.50
2022-09-15T08:23:12.661Z,16.50
2022-09-15T08:25:39.754Z,16.60
2022-09-15T08:28:06.390Z,16.70
2022-09-15T08:30:33.059Z,16.60
2022-09-15T08:32:59.748Z,16.70
2022-09-15T08:35:26.543Z,16.80
2022-09-15T08:37:54.683Z,16.80
2022-09-15T08:40:25.942Z,16.80
2022-09-15T08:42:57.846Z,16.80
2022-09-15T08:45:35.591Z,16.80
2022-09-15T08:48:05.882Z,16.80
2022-09-15T08:50:38.950Z,16.80
2022-09-15T08:53:12.898Z,16.80
2022-09-15T08:55:54.044Z,17.00
2022-09-15T08:58:26.195Z,17.00
2022-09-15T09:01:03.217Z,17.10
2022-09-15T09:03:49.176Z,17.20
2022-09-15T09:06:34.628Z,17.30
2022-09-15T09:09:22.365Z,17.30
2022-09-15T09:12:10.546Z,17.30
2022-09-15T09:15:08.669Z,17.30
2022-09-15T09:17:45.552Z,17.40
2022-09-15T09:20:32.046Z,17.40
2022-09-15T09:23:04.056Z,17.50
2022-09-15T09:25:31.428Z,17.50
2022-09-15T09:27:59.166Z,17.50
2022-09-15T09:30:30.025Z,17.60
2022-09-15T09:33:34.674Z,17.60
2022-09-15T09:36:02.394Z,17.50
2022-09-15T09:38:34.422Z,17.60
2022-09-15T09:41:02.738Z,17.80
2022-09-15T09:43:31.243Z,17.80
2022-09-15T09:45:59.195Z,17.80
2022-09-15T09:48:28.695Z,17.70
2022-09-15T09:50:56.281Z,17.70
2022-09-15T09:53:31.308Z,17.70
2022-09-15T09:56:24.311Z,17.80
2022-09-15T09:58:51.582Z,17.80
2022-09-15T10:01:20.892Z,18.10
2022-09-15T10:03:47.744Z,18.20
2022-09-15T10:06:22.170Z,18.30
2022-09-15T10:09:08.550Z,18.30
2022-09-15T10:11:52.542Z,18.20
2022-09-15T10:14:30.157Z,18.10
2022-09-15T10:17:14.014Z,18.20
2022-09-15T10:19:54.245Z,18.20
2022-09-15T10:22:34.746Z,18.20
2022-09-15T10:25:49.295Z,18.30
2022-09-15T10:28:23.036Z,18.30
2022-09-15T10:31:03.080Z,18.30
2022-09-15T10:33:41.900Z,18.40
2022-09-15T10:36:20.158Z,18.40
2022-09-15T10:38:49.358Z,18.40
2022-09-15T10:41:29.858Z,18.40
2022-09-15T10:44:18.296Z,18.40
2022-09-15T10:47:14.729Z,18.40
2022-09-15T10:50:06.089Z,18.50
2022-09-15T10:53:01.894Z,18.60
2022-09-15T10:55:58.022Z,18.70
2022-09-15T10:58:45.153Z,18.70
2022-09-15T11:01:18.333Z,18.70
2022-09-15T11:03:58.504Z,18.80
2022-09-15T11:06:41.950Z,18.90
2022-09-15T11:09:29.814Z,18.90
2022-09-15T11:12:34.282Z,19.00
2022-09-15T11:15:16.603Z,19.10
2022-09-15T11:17:58.714Z,19.00
2022-09-15T11:20:25.397Z,19.00
2022-09-15T11:23:17.811Z,19.00
2022-09-15T11:25:50.014Z,19.00
2022-09-15T11:28:40.396Z,18.90
2022-09-15T11:31:29.936Z,18.80
2022-09-15T11:34:25.036Z,18.80
2022-09-15T11:37:01.151Z,18.90
2022-09-15T11:39:35.059Z,18.80
2022-09-15T11:42:09.135Z,18.80
2022-09-15T11:44:42.058Z,18.80
2022-09-15T11:47:39.790Z,18.90
2022-09-15T11:50:24.402Z,18.80
2022-09-15T11:53:02.502Z,18.70
2022-09-15T11:55:41.673Z,18.80
2022-09-15T11:58:23.005Z,18.80
2022-09-15T12:01:11.431Z,18.90
2022-09-15T12:03:53.568Z,19.10
2022-09-15T12:06:32.944Z,19.30
2022-09-15T12:09:05.260Z,19.40
2022-09-15T12:11:39.634Z,19.60
2022-09-15T12:14:08.254Z,19.70
2022-09-15T12:16:35.490Z,19.70
2022-09-15T12:19:37.828Z,19.50
2022-09-15T12:22:19.202Z,19.40
2022-09-15T12:25:32.267Z,19.40
2022-09-15T12:28:26.684Z,19.30
2022-09-15T12:31:25.586Z,19.20
2022-09-15T12:34:13.721Z,19.20
2022-09-15T12:36:43.880Z,19.20
2022-09-15T12:39:24.715Z,19.20
2022-09-15T12:42:20.369Z,19.20
2022-09-15T12:44:55.748Z,19.30
2022-09-15T12:47:41.314Z,19.30
2022-09-15T12:50:17.252Z,19.30
2022-09-15T12:52:50.634Z,19.40
2022-09-15T12:55:27.254Z,19.40
2022-09-15T12:58:00.209Z,19.50
2022-09-15T13:00:31.062Z,19.50
2022-09-15T13:02:57.977Z,19.70
2022-09-15T13:06:13.744Z,19.90
2022-09-15T13:08:52.529Z,20.00
2022-09-15T13:11:34.251Z,20.20
2022-09-15T13:14:03.695Z,20.30
2022-09-15T13:16:48.205Z,20.50
2022-09-15T13:19:33.652Z,20.30
2022-09-15T13:22:11.408Z,20.30
2022-09-15T13:25:02.221Z,20.20
2022-09-15T13:27:45.731Z,20.20
2022-09-15T13:30:22.054Z,20.10
2022-09-15T13:40:12.964Z,19.80
2022-09-15T13:42:58.004Z,19.70
2022-09-15T13:45:43.544Z,19.60
2022-09-15T13:48:39.725Z,19.30
2022-09-15T13:51:22.658Z,19.20
2022-09-15T13:53:56.029Z,19.00
2022-09-15T13:56:27.746Z,19.00
2022-09-15T13:59:04.542Z,19.00
2022-09-15T14:01:56.544Z,19.00
2022-09-15T14:04:31.567Z,19.00
2022-09-15T14:07:01.404Z,18.90
2022-09-15T14:09:31.113Z,18.80
2022-09-15T14:12:02.450Z,18.80
2022-09-15T14:14:34.027Z,18.80
2022-09-15T14:17:00.860Z,18.80
2022-09-15T14:19:34.967Z,18.80
2022-09-15T14:22:20.171Z,18.90
2022-09-15T14:24:47.444Z,18.90
2022-09-15T14:27:21.481Z,19.00
2022-09-15T14:29:51.161Z,19.00
2022-09-15T14:32:18.225Z,18.80
2022-09-15T14:34:45.529Z,18.80
2022-09-15T14:37:31.454Z,18.80
2022-09-15T14:40:00.694Z,18.80
2022-09-15T14:42:35.952Z,18.90
2022-09-15T14:48:06.102Z,19.00
2022-09-15T14:50:33.687Z,19.20
2022-09-15T14:53:00.445Z,19.30
2022-09-15T14:55:28.363Z,19.40
2022-09-15T14:58:16.857Z,19.30
2022-09-15T15:00:54.749Z,19.20
2022-09-15T15:03:31.579Z,19.10
2022-09-15T15:06:12.722Z,19.00
2022-09-15T15:08:51.029Z,19.00
2022-09-15T15:11:18.681Z,18.90
2022-09-15T15:13:49.723Z,18.90
2022-09-15T15:16:22.235Z,18.90
2022-09-15T15:18:51.245Z,18.90
2022-09-15T15:21:45.113Z,18.80
2022-09-15T15:24:14.524Z,18.80
2022-09-15T15:26:43.594Z,18.80
2022-09-15T15:29:43.178Z,18.80
2022-09-15T15:32:13.531Z,18.80
2022-09-15T15:34:47.571Z,18.80
2022-09-15T15:37:27.648Z,18.80
2022-09-15T15:39:59.786Z,18.80
2022-09-15T15:42:28.733Z,18.70
2022-09-15T15:45:04.309Z,18.70
2022-09-15T15:47:35.066Z,18.60
2022-09-15T15:50:19.970Z,18.60
2022-09-15T15:52:48.097Z,18.60
2022-09-15T15:55:17.713Z,18.60
2022-09-15T15:57:47.244Z,18.70
2022-09-15T16:00:21.767Z,18.80
2022-09-15T16:02:49.428Z,18.80
2022-09-15T16:05:16.384Z,18.70
2022-09-15T16:07:45.883Z,18.70
2022-09-15T16:10:21.470Z,18.70
2022-09-15T16:12:48.231Z,18.70
2022-09-15T16:15:20.727Z,18.60
2022-09-15T16:17:49.382Z,18.60
2022-09-15T16:20:16.888Z,18.50
2022-09-15T16:22:43.868Z,18.50
2022-09-15T16:25:21.141Z,18.40
2022-09-15T16:27:47.823Z,18.40
2022-09-15T16:30:14.497Z,18.40
2022-09-15T16:32:41.261Z,18.40
2022-09-15T16:35:29.026Z,18.40
2022-09-15T16:37:55.640Z,18.30
2022-09-15T16:40:22.354Z,18.30
2022-09-15T16:42:49.165Z,18.20
2022-09-15T16:45:38.147Z,18.20
2022-09-15T16:48:07.544Z,18.30
2022-09-15T16:50:34.546Z,18.10
2022-09-15T16:53:01.166Z,18.20
2022-09-15T16:55:38.951Z,18.20
2022-09-15T16:58:06.662Z,18.20
2022-09-15T17:00:36.247Z,18.20
2022-09-15T17:03:04.594Z,18.20
2022-09-15T17:05:31.315Z,18.00
2022-09-15T17:07:58.152Z,17.90
2022-09-15T17:10:24.893Z,17.80
2022-09-15T17:12:51.911Z,17.70
2022-09-15T17:15:31.775Z,17.80
2022-09-15T17:17:58.492Z,17.80
2022-09-15T17:20:25.943Z,17.90
2022-09-15T17:22:53.856Z,17.80
2022-09-15T17:25:23.360Z,17.70
2022-09-15T17:27:50.546Z,17.60
2022-09-15T17:30:18.986Z,17.70
2022-09-15T17:32:46.178Z,17.60
2022-09-15T17:35:25.276Z,17.70
2022-09-15T17:37:52.750Z,17.70
2022-09-15T17:40:20.895Z,17.60
2022-09-15T17:42:49.059Z,17.50
2022-09-15T17:45:23.375Z,17.30
2022-09-15T17:47:51.144Z,17.30
2022-09-15T17:50:20.439Z,17.20
2022-09-15T17:52:47.868Z,17.20
2022-09-15T17:55:17.896Z,17.20
2022-09-15T17:57:44.762Z,17.10
2022-09-15T18:00:13.451Z,17.10
2022-09-15T18:02:42.221Z,17.00
2022-09-15T18:05:25.109Z,16.70
2022-09-15T18:07:57.007Z,16.60
2022-09-15T18:10:30.610Z,16.50
2022-09-15T18:12:57.477Z,16.50
2022-09-15T18:15:26.647Z,16.60
2022-09-15T18:17:55.752Z,16.50
2022-09-15T18:20:25.850Z,16.30
2022-09-15T18:22:53.389Z,16.30
2022-09-15T18:25:23.641Z,16.20
2022-09-15T18:27:50.481Z,16.30
2022-09-15T18:30:18.348Z,16.30
2022-09-15T18:32:45.693Z,16.50
2022-09-15T18:35:18.237Z,16.40
2022-09-15T18:37:46.867Z,16.50
2022-09-15T18:40:15.673Z,16.30
2022-09-15T18:42:43.145Z,16.40
2022-09-15T18:45:12.925Z,16.30
2022-09-15T18:47:40.919Z,16.30
2022-09-15T18:50:09.570Z,16.40
2022-09-15T18:52:37.878Z,16.40
2022-09-15T18:55:05.943Z,16.30
2022-09-15T18:57:37.511Z,16.30
2022-09-15T19:00:07.937Z,16.20
2022-09-15T19:02:34.853Z,16.20
2022-09-15T19:05:01.731Z,16.20
2022-09-15T19:07:28.724Z,16.30
2022-09-15T19:09:56.791Z,16.20
2022-09-15T19:12:23.722Z,16.00
2022-09-15T19:14:50.416Z,15.90
2022-09-15T19:17:17.251Z,15.80
2022-09-15T19:19:46.248Z,15.80
2022-09-15T19:22:13.210Z,15.70
2022-09-15T19:24:39.834Z,15.80
2022-09-15T19:30:54.660Z,15.90
2022-09-15T19:33:21.435Z,15.90
2022-09-15T19:35:53.335Z,15.90
2022-09-15T19:38:31.694Z,15.90
2022-09-15T19:41:06.669Z,15.80
2022-09-15T19:43:36.322Z,15.80
2022-09-15T19:46:03.180Z,15.90
2022-09-15T19:48:30.007Z,15.80
2022-09-15T19:50:56.783Z,15.90
2022-09-15T19:53:23.417Z,15.80
2022-09-15T19:55:51.524Z,15.70
2022-09-15T19:58:19.083Z,15.70
2022-09-15T20:00:55.026Z,15.70
2022-09-15T20:03:27.673Z,15.80
2022-09-15T20:05:57.478Z,15.80
2022-09-15T20:08:25.038Z,15.90
2022-09-15T20:10:51.729Z,15.90
2022-09-15T20:13:18.890Z,15.80
2022-09-15T20:15:58.654Z,15.70
2022-09-15T20:18:26.192Z,15.50
2022-09-15T20:20:53.803Z,15.60
2022-09-15T20:23:21.501Z,15.60
2022-09-15T20:25:56.445Z,15.50
2022-09-15T20:28:23.508Z,15.50
2022-09-15T20:31:11.781Z,15.60
2022-09-15T20:33:40.697Z,15.70
2022-09-15T20:36:13.487Z,15.60
2022-09-15T20:38:41.659Z,15.60
2022-09-15T20:41:10.330Z,15.60
2022-09-15T20:43:40.295Z,15.50
2022-09-15T20:46:13.290Z,15.50
2022-09-15T20:48:40.760Z,15.40
2022-09-15T20:51:12.011Z,15.30
2022-09-15T20:53:40.940Z,15.40
2022-09-15T20:56:08.472Z,15.50
2022-09-15T20:58:36.532Z,15.50
2022-09-15T21:01:14.543Z,15.50
2022-09-15T21:03:43.655Z,15.60
2022-09-15T21:06:13.706Z,15.60
2022-09-15T21:08:40.629Z,15.50
2022-09-15T21:11:10.507Z,15.60
2022-09-15T21:13:40.081Z,15.70
2022-09-15T21:16:09.340Z,15.60
2022-09-15T21:18:38.312Z,15.70
2022-09-15T21:21:30.173Z,15.60
2022-09-15T21:24:03.867Z,15.70
2022-09-15T21:27:02.698Z,15.70
2022-09-15T21:29:29.444Z,15.70
2022-09-15T21:31:56.240Z,15.70
2022-09-15T21:34:23.901Z,15.80
2022-09-15T21:36:51.803Z,15.80
2022-09-15T21:39:18.495Z,15.80
2022-09-15T21:41:45.163Z,15.80
2022-09-15T21:44:12.027Z,15.70
2022-09-15T21:46:38.696Z,15.80
2022-09-15T21:49:05.851Z,15.80
2022-09-15T21:51:32.902Z,15.80
2022-09-15T21:54:00.654Z,15.80
2022-09-15T21:56:29.100Z,15.90
2022-09-15T21:58:55.887Z,15.80
2022-09-15T22:01:29.152Z,15.90
2022-09-15T22:04:04.319Z,15.80
2022-09-15T22:06:36.261Z,15.80
2022-09-15T22:09:06.851Z,15.80
2022-09-15T22:11:34.153Z,15.80
2022-09-15T22:14:02.938Z,15.80
2022-09-15T22:16:30.043Z,15.80
2022-09-15T22:18:57.015Z,15.70
2022-09-15T22:21:27.065Z,15.70
2022-09-15T22:23:55.934Z,15.70
2022-09-15T22:26:28.170Z,15.70
2022-09-15T22:28:55.819Z,15.70
2022-09-15T22:31:23.772Z,15.70
2022-09-15T22:33:50.691Z,15.60
2022-09-15T22:36:19.683Z,15.50
2022-09-15T22:38:46.538Z,15.60
2022-09-15T22:41:16.557Z,15.60
2022-09-15T22:43:44.818Z,15.60
2022-09-15T22:46:12.053Z,15.60
2022-09-15T22:48:43.347Z,15.70
2022-09-15T22:51:11.215Z,15.60
2022-09-15T22:53:38.030Z,15.60
2022-09-15T22:56:19.758Z,15.60
2022-09-15T22:58:48.068Z,15.60
2022-09-15T23:01:18.003Z,15.50
2022-09-15T23:03:47.560Z,15.50
2022-09-15T23:06:14.473Z,15.50
2022-09-15T23:08:41.195Z,15.50
2022-09-15T23:11:13.281Z,15.50
2022-09-15T23:13:40.961Z,15.50
2022-09-15T23:16:08.950Z,15.50
2022-09-15T23:18:36.482Z,15.50
2022-09-15T23:21:08.657Z,15.50
2022-09-15T23:23:37.129Z,15.40
2022-09-15T23:26:10.066Z,15.40
2022-09-15T23:28:38.894Z,15.40
2022-09-15T23:31:06.325Z,15.40
2022-09-15T23:33:33.192Z,15.40
2022-09-15T23:36:01.475Z,15.40
2022-09-15T23:38:28.801Z,15.40
2022-09-15T23:40:55.437Z,15.40
2022-09-15T23:43:22.846Z,15.40
2022-09-15T23:45:51.076Z,15.40
2022-09-15T23:48:17.802Z,15.40
2022-09-15T23:50:44.429Z,15.30
2022-09-15T23:53:11.177Z,15.30
2022-09-15T23:55:37.984Z,15.30
2022-09-15T23:58:05.681Z,15.40
